createdAt,value
2019-03-28T00:01:20.184Z,100907.97
2019-03-28T00:03:50.294Z,100902.64
2019-03-28T00:06:20.414Z,100907.12
2019-03-28T00:08:50.501Z,100904.67
2019-03-28T00:11:20.588Z,100904.77
2019-03-28T00:13:50.694Z,100904.55
2019-03-28T00:16:20.802Z,100901.84
2019-03-28T00:18:50.911Z,100913.08
2019-03-28T00:21:20.962Z,100914.56
2019-03-28T00:24:09.895Z,100918.77
2019-03-28T00:26:40.114Z,100926.88
2019-03-28T00:29:10.226Z,100932.68
2019-03-28T00:31:40.335Z,100934.63
2019-03-28T00:34:10.657Z,100933.67
2019-03-28T00:36:40.709Z,100935.70
2019-03-28T00:39:10.829Z,100933.52
2019-03-28T00:41:40.927Z,100931.80
2019-03-28T00:44:11.002Z,100930.36
2019-03-28T00:46:41.093Z,100934.78
2019-03-28T00:49:11.184Z,100934.28
2019-03-28T00:51:43.130Z,100927.14
2019-03-28T00:54:13.099Z,100934.86
2019-03-28T00:56:47.169Z,100935.34
2019-03-28T00:59:15.037Z,100930.88
2019-03-28T01:01:45.098Z,100935.98
2019-03-28T01:04:15.201Z,100936.94
2019-03-28T01:06:45.269Z,100933.32
2019-03-28T01:09:15.369Z,100936.67
2019-03-28T01:11:45.473Z,100932.42
2019-03-28T01:14:15.622Z,100931.56
2019-03-28T01:16:45.718Z,100932.66
2019-03-28T01:19:15.810Z,100933.99
2019-03-28T01:21:45.925Z,100929.09
2019-03-28T01:24:15.980Z,100934.20
2019-03-28T01:26:56.551Z,100931.17
2019-03-28T01:29:18.110Z,100930.53
2019-03-28T01:31:48.271Z,100924.60
2019-03-28T01:34:18.568Z,100927.84
2019-03-28T01:36:48.726Z,100937.95
2019-03-28T01:39:18.814Z,100935.53
2019-03-28T01:41:48.929Z,100937.66
2019-03-28T01:44:19.023Z,100934.14
2019-03-28T01:46:49.291Z,100930.31
2019-03-28T01:49:19.492Z,100931.38
2019-03-28T01:51:49.589Z,100930.63
2019-03-28T01:54:19.651Z,100934.41
2019-03-28T01:56:49.756Z,100939.63
2019-03-28T01:59:19.841Z,100945.05
2019-03-28T02:01:50.012Z,100948.30
2019-03-28T02:04:20.078Z,100956.28
2019-03-28T02:06:50.170Z,100948.85
2019-03-28T02:09:20.262Z,100950.45
2019-03-28T02:11:50.338Z,100956.08
2019-03-28T02:14:20.420Z,100951.02
2019-03-28T02:16:50.565Z,100956.72
2019-03-28T02:19:20.675Z,100958.16
2019-03-28T02:21:50.843Z,100964.27
2019-03-28T02:24:20.938Z,100965.84
2019-03-28T02:26:51.005Z,100966.63
2019-03-28T02:29:21.123Z,100974.57
2019-03-28T02:31:51.211Z,100967.27
2019-03-28T02:34:21.284Z,100966.42
2019-03-28T02:36:51.346Z,100971.27
2019-03-28T02:39:21.500Z,100975.83
2019-03-28T02:41:51.686Z,100980.78
2019-03-28T02:44:21.838Z,100982.72
2019-03-28T02:46:52.031Z,100982.55
2019-03-28T02:49:22.134Z,100984.35
2019-03-28T02:51:52.371Z,100982.03
2019-03-28T02:54:22.525Z,100991.91
2019-03-28T02:56:52.816Z,100988.94
2019-03-28T02:59:22.886Z,100993.13
2019-03-28T03:01:52.960Z,100998.88
2019-03-28T03:04:23.067Z,101004.49
2019-03-28T03:06:53.128Z,101000.84
2019-03-28T03:09:23.241Z,101011.95
2019-03-28T03:11:53.409Z,101009.20
2019-03-28T03:14:23.669Z,101003.22
2019-03-28T03:16:53.773Z,100998.75
2019-03-28T03:19:23.892Z,101011.02
2019-03-28T03:21:54.150Z,101011.86
2019-03-28T03:24:24.294Z,101018.13
2019-03-28T03:26:54.496Z,101023.20
2019-03-28T03:29:24.786Z,101017.70
2019-03-28T03:31:54.945Z,101024.06
2019-03-28T03:34:25.231Z,101032.64
2019-03-28T03:36:55.485Z,101038.16
2019-03-28T03:39:25.567Z,101042.70
2019-03-28T03:41:55.826Z,101038.25
2019-03-28T03:44:26.111Z,101047.64
2019-03-28T03:46:56.265Z,101042.70
2019-03-28T03:49:26.459Z,101046.22
2019-03-28T03:51:56.710Z,101048.41
2019-03-28T03:54:27.006Z,101057.52
2019-03-28T03:56:57.155Z,101060.55
2019-03-28T03:59:27.350Z,101052.71
2019-03-28T04:01:57.424Z,101056.19
2019-03-28T04:04:27.683Z,101056.79
2019-03-28T04:06:57.817Z,101059.22
2019-03-28T04:09:27.993Z,101062.27
2019-03-28T04:11:58.289Z,101064.16
2019-03-28T04:14:28.591Z,101070.33
2019-03-28T04:16:58.832Z,101072.13
2019-03-28T04:19:29.022Z,101071.78
2019-03-28T04:21:59.146Z,101070.42
2019-03-28T04:24:29.262Z,101077.13
2019-03-28T04:26:59.380Z,101073.70
2019-03-28T04:29:30.554Z,101076.61
2019-03-28T04:32:00.973Z,101075.04
2019-03-28T04:34:31.070Z,101071.66
2019-03-28T04:37:01.150Z,101080.25
2019-03-28T04:39:31.400Z,101072.92
2019-03-28T04:42:01.555Z,101079.31
2019-03-28T04:44:31.755Z,101077.52
2019-03-28T04:47:01.864Z,101076.44
2019-03-28T04:49:31.941Z,101080.36
2019-03-28T04:52:02.020Z,101078.67
2019-03-28T04:54:32.247Z,101084.57
2019-03-28T04:57:02.350Z,101081.27
2019-03-28T04:59:32.490Z,101083.27
2019-03-28T05:02:03.718Z,101081.81
2019-03-28T05:04:34.554Z,101081.22
2019-03-28T05:07:04.686Z,101089.20
2019-03-28T05:09:34.848Z,101087.53
2019-03-28T05:12:05.184Z,101090.69
2019-03-28T05:14:35.434Z,101085.34
2019-03-28T05:17:05.525Z,101094.08
2019-03-28T05:19:35.600Z,101088.61
2019-03-28T05:22:05.723Z,101086.46
2019-03-28T05:24:36.012Z,101089.38
2019-03-28T05:27:06.164Z,101086.39
2019-03-28T05:29:36.456Z,101083.22
2019-03-28T05:32:06.609Z,101086.08
2019-03-28T05:34:36.800Z,101089.44
2019-03-28T05:37:06.936Z,101088.33
2019-03-28T05:39:37.141Z,101089.32
2019-03-28T05:42:07.291Z,101087.23
2019-03-28T05:44:37.397Z,101088.19
2019-03-28T05:47:07.635Z,101081.80
2019-03-28T05:49:37.831Z,101089.37
2019-03-28T05:52:08.057Z,101087.93
2019-03-28T05:54:38.209Z,101089.55
2019-03-28T05:57:08.389Z,101096.14
2019-03-28T05:59:38.604Z,101088.00
2019-03-28T06:02:09.344Z,101082.28
2019-03-28T06:04:39.432Z,101083.98
2019-03-28T06:07:10.294Z,101085.84
2019-03-28T06:09:40.709Z,101090.06
2019-03-28T06:12:10.977Z,101092.57
2019-03-28T06:14:41.187Z,101090.94
2019-03-28T06:17:11.391Z,101089.33
2019-03-28T06:19:41.546Z,101091.36
2019-03-28T06:22:11.712Z,101091.65
2019-03-28T06:24:41.869Z,101097.05
2019-03-28T06:27:12.072Z,101096.88
2019-03-28T06:29:42.340Z,101101.23
2019-03-28T06:32:12.625Z,101101.66
2019-03-28T06:34:42.802Z,101101.91
2019-03-28T06:37:12.877Z,101105.20
2019-03-28T06:39:43.080Z,101101.17
2019-03-28T06:42:13.213Z,101100.12
2019-03-28T06:44:43.425Z,101101.89
2019-03-28T06:47:13.516Z,101104.84
2019-03-28T06:49:43.772Z,101096.26
2019-03-28T06:52:13.919Z,101107.14
2019-03-28T06:54:44.207Z,101104.84
2019-03-28T06:57:14.360Z,101105.58
2019-03-28T06:59:44.549Z,101104.84
2019-03-28T07:02:14.646Z,101105.23
2019-03-28T07:04:44.888Z,101104.09
2019-03-28T07:07:18.225Z,101106.81
2019-03-28T07:09:46.920Z,101106.94
2019-03-28T07:12:17.234Z,101108.30
2019-03-28T07:14:47.413Z,101104.70
2019-03-28T07:17:17.575Z,101101.17
2019-03-28T07:19:47.666Z,101103.20
2019-03-28T07:22:17.855Z,101095.47
2019-03-28T07:24:48.202Z,101090.03
2019-03-28T07:27:18.460Z,101086.31
2019-03-28T07:29:51.055Z,101100.32
2019-03-28T07:32:20.744Z,101084.30
2019-03-28T07:34:50.935Z,101093.47
2019-03-28T07:37:21.183Z,101095.48
2019-03-28T07:39:51.478Z,101088.37
2019-03-28T07:42:21.707Z,101093.77
2019-03-28T07:44:51.963Z,101094.80
2019-03-28T07:47:22.146Z,101087.02
2019-03-28T07:49:52.248Z,101094.62
2019-03-28T07:52:22.387Z,101094.63
2019-03-28T07:54:52.638Z,101088.72
2019-03-28T07:57:22.755Z,101093.28
2019-03-28T08:00:03.475Z,101082.92
2019-03-28T08:02:24.804Z,101092.56
2019-03-28T08:04:54.946Z,101092.44
2019-03-28T08:07:25.147Z,101090.08
2019-03-28T08:09:55.412Z,101085.35
2019-03-28T08:12:25.590Z,101080.27
2019-03-28T08:14:55.681Z,101084.66
2019-03-28T08:17:25.744Z,101082.62
2019-03-28T08:19:55.926Z,101078.56
2019-03-28T08:22:29.533Z,101076.19
2019-03-28T08:24:58.279Z,101081.27
2019-03-28T08:27:28.459Z,101084.48
2019-03-28T08:29:58.585Z,101086.02
2019-03-28T08:32:29.005Z,101081.63
2019-03-28T08:34:59.240Z,101081.61
2019-03-28T08:37:29.335Z,101075.20
2019-03-28T08:39:59.805Z,101066.03
2019-03-28T08:42:29.905Z,101069.06
2019-03-28T08:44:59.988Z,101065.67
2019-03-28T08:47:30.127Z,101073.81
2019-03-28T08:50:00.428Z,101064.22
2019-03-28T08:52:30.704Z,101056.58
2019-03-28T08:55:00.801Z,101061.10
2019-03-28T08:57:30.873Z,101057.87
2019-03-28T09:00:00.996Z,101060.95
2019-03-28T09:02:31.085Z,101056.52
2019-03-28T09:05:01.155Z,101048.62
2019-03-28T09:07:31.255Z,101047.00
2019-03-28T09:10:01.327Z,101052.83
2019-03-28T09:12:34.856Z,101048.77
2019-03-28T09:15:03.251Z,101055.47
2019-03-28T09:17:33.322Z,101049.72
2019-03-28T09:20:03.427Z,101055.52
2019-03-28T09:22:33.514Z,101045.32
2019-03-28T09:25:03.683Z,101037.19
2019-03-28T09:27:33.776Z,101041.30
2019-03-28T09:30:03.903Z,101039.81
2019-03-28T09:32:34.169Z,101039.28
2019-03-28T09:35:04.735Z,101031.95
2019-03-28T09:37:34.965Z,101033.34
2019-03-28T09:40:05.122Z,101025.24
2019-03-28T09:42:35.211Z,101021.86
2019-03-28T09:45:05.965Z,101014.24
2019-03-28T09:47:36.060Z,101016.11
2019-03-28T09:50:06.154Z,101015.73
2019-03-28T09:52:36.350Z,101021.17
2019-03-28T09:55:06.705Z,101017.55
2019-03-28T09:57:36.805Z,101010.98
2019-03-28T10:00:07.540Z,101011.67
2019-03-28T10:02:37.647Z,101012.22
2019-03-28T10:05:07.968Z,101011.66
2019-03-28T10:07:38.593Z,101008.48
2019-03-28T10:10:09.399Z,101008.59
2019-03-28T10:12:39.477Z,101011.66
2019-03-28T10:15:09.704Z,101004.03
2019-03-28T10:17:42.365Z,101003.27
2019-03-28T10:20:11.628Z,101002.80
2019-03-28T10:22:41.729Z,101000.55
2019-03-28T10:25:13.052Z,101000.78
2019-03-28T10:27:44.361Z,101002.79
2019-03-28T10:30:14.481Z,100991.82
2019-03-28T10:32:44.640Z,100998.64
2019-03-28T10:35:27.309Z,100986.33
2019-03-28T10:37:57.391Z,100985.87
2019-03-28T10:40:27.478Z,100980.17
2019-03-28T10:42:57.633Z,100974.41
2019-03-28T10:45:27.902Z,100981.95
2019-03-28T10:47:58.019Z,100977.42
2019-03-28T10:50:40.193Z,100969.08
2019-03-28T10:52:59.874Z,100970.97
2019-03-28T10:55:29.970Z,100963.50
2019-03-28T10:58:00.146Z,100962.52
2019-03-28T11:00:30.255Z,100955.79
2019-03-28T11:03:00.454Z,100957.14
2019-03-28T11:05:30.486Z,100948.51
2019-03-28T11:08:00.593Z,100957.05
2019-03-28T11:10:30.779Z,100955.31
2019-03-28T11:13:00.852Z,100948.57
2019-03-28T11:15:30.935Z,100946.50
2019-03-28T11:18:01.039Z,100944.38
2019-03-28T11:20:31.126Z,100942.77
2019-03-28T11:23:02.363Z,100936.62
2019-03-28T11:25:32.494Z,100940.20
2019-03-28T11:28:02.637Z,100934.30
2019-03-28T11:30:32.686Z,100933.03
2019-03-28T11:33:06.225Z,100937.16
2019-03-28T11:35:34.678Z,100926.98
2019-03-28T11:38:05.214Z,100920.55
2019-03-28T11:40:35.287Z,100916.82
2019-03-28T11:43:05.494Z,100912.16
2019-03-28T11:45:35.603Z,100901.02
2019-03-28T11:48:05.682Z,100906.52
2019-03-28T11:50:35.794Z,100897.69
2019-03-28T11:53:05.878Z,100899.65
2019-03-28T11:55:36.025Z,100898.86
2019-03-28T11:58:06.224Z,100895.51
2019-03-28T12:00:36.368Z,100895.94
2019-03-28T12:03:06.458Z,100894.89
2019-03-28T12:05:36.558Z,100879.30
2019-03-28T12:08:06.686Z,100876.52
2019-03-28T12:10:36.810Z,100875.59
2019-03-28T12:13:06.891Z,100874.32
2019-03-28T12:15:36.994Z,100876.14
2019-03-28T12:18:07.094Z,100866.27
2019-03-28T12:20:37.203Z,100863.72
2019-03-28T12:23:07.280Z,100865.45
2019-03-28T12:25:37.381Z,100862.72
2019-03-28T12:28:07.456Z,100869.26
2019-03-28T12:30:37.548Z,100859.80
2019-03-28T12:33:07.649Z,100856.30
2019-03-28T12:35:37.730Z,100849.33
2019-03-28T12:38:07.845Z,100838.52
2019-03-28T12:40:37.979Z,100840.42
2019-03-28T12:43:08.077Z,100851.42
2019-03-28T12:45:38.180Z,100834.45
2019-03-28T12:48:08.262Z,100832.02
2019-03-28T12:50:38.347Z,100834.57
2019-03-28T12:53:08.407Z,100835.02
2019-03-28T12:55:38.599Z,100829.83
2019-03-28T12:58:08.693Z,100833.29
2019-03-28T13:00:39.146Z,100830.89
2019-03-28T13:03:09.230Z,100828.06
2019-03-28T13:05:39.330Z,100817.84
2019-03-28T13:08:09.507Z,100823.44
2019-03-28T13:10:39.705Z,100821.18
2019-03-28T13:13:09.794Z,100803.66
2019-03-28T13:15:39.885Z,100814.11
2019-03-28T13:18:09.956Z,100811.02
2019-03-28T13:20:40.072Z,100808.17
2019-03-28T13:23:10.149Z,100809.69
2019-03-28T13:25:40.231Z,100800.70
2019-03-28T13:28:10.331Z,100801.79
2019-03-28T13:30:40.484Z,100801.44
2019-03-28T13:33:10.583Z,100795.34
2019-03-28T13:35:40.687Z,100793.60
2019-03-28T13:38:10.785Z,100792.98
2019-03-28T13:40:40.854Z,100796.97
2019-03-28T13:43:10.943Z,100795.95
2019-03-28T13:45:41.019Z,100793.66
2019-03-28T13:48:13.708Z,100793.14
2019-03-28T13:50:42.916Z,100792.38
2019-03-28T13:53:13.005Z,100790.72
2019-03-28T13:55:43.077Z,100784.64
2019-03-28T13:58:13.873Z,100789.20
2019-03-28T14:00:44.106Z,100782.17
2019-03-28T14:03:14.221Z,100781.16
2019-03-28T14:05:44.287Z,100778.48
2019-03-28T14:08:14.640Z,100776.30
2019-03-28T14:10:44.945Z,100781.73
2019-03-28T14:13:15.018Z,100781.78
2019-03-28T14:15:45.114Z,100780.81
2019-03-28T14:18:15.300Z,100776.13
2019-03-28T14:20:45.355Z,100774.78
2019-03-28T14:23:15.447Z,100766.16
2019-03-28T14:25:45.539Z,100767.39
2019-03-28T14:28:15.714Z,100764.69
2019-03-28T14:30:45.931Z,100766.89
2019-03-28T14:33:16.247Z,100770.43
2019-03-28T14:35:46.479Z,100764.77
2019-03-28T14:38:16.559Z,100770.18
2019-03-28T14:40:46.640Z,100768.19
2019-03-28T14:43:16.815Z,100766.84
2019-03-28T14:45:46.919Z,100768.89
2019-03-28T14:48:17.015Z,100762.82
2019-03-28T14:50:47.226Z,100754.20
2019-03-28T14:53:17.337Z,100756.77
2019-03-28T14:55:47.427Z,100758.80
2019-03-28T14:58:17.552Z,100754.74
2019-03-28T15:00:49.045Z,100755.11
2019-03-28T15:03:26.198Z,100754.27
2019-03-28T15:05:51.000Z,100753.78
2019-03-28T15:08:21.055Z,100752.41
2019-03-28T15:10:51.153Z,100750.23
2019-03-28T15:13:21.233Z,100753.45
2019-03-28T15:15:53.562Z,100749.23
2019-03-28T15:18:23.651Z,100751.79
2019-03-28T15:20:53.816Z,100751.09
2019-03-28T15:23:23.901Z,100755.48
2019-03-28T15:25:53.988Z,100762.08
2019-03-28T15:28:24.072Z,100763.27
2019-03-28T15:30:54.161Z,100756.36
2019-03-28T15:33:24.235Z,100759.56
2019-03-28T15:35:54.407Z,100757.36
2019-03-28T15:38:24.519Z,100761.23
2019-03-28T15:40:54.607Z,100763.44
2019-03-28T15:43:24.722Z,100761.75
2019-03-28T15:45:54.831Z,100769.31
2019-03-28T15:48:24.967Z,100772.69
2019-03-28T15:50:55.131Z,100773.34
2019-03-28T15:53:25.241Z,100772.98
2019-03-28T15:55:55.427Z,100770.94
2019-03-28T15:58:25.521Z,100781.05
2019-03-28T16:00:55.660Z,100782.90
2019-03-28T16:03:25.765Z,100783.72
2019-03-28T16:05:58.599Z,100789.87
2019-03-28T16:08:28.022Z,100791.88
2019-03-28T16:10:58.073Z,100792.01
2019-03-28T16:13:28.211Z,100796.36
2019-03-28T16:15:58.305Z,100795.98
2019-03-28T16:18:28.413Z,100795.59
2019-03-28T16:20:58.498Z,100799.25
2019-03-28T16:23:29.482Z,100798.86
2019-03-28T16:25:59.763Z,100797.78
2019-03-28T16:28:29.997Z,100795.92
2019-03-28T16:31:00.193Z,100802.75
2019-03-28T16:33:30.475Z,100802.27
2019-03-28T16:36:00.545Z,100799.41
2019-03-28T16:38:32.885Z,100799.80
2019-03-28T16:41:02.450Z,100801.03
2019-03-28T16:43:32.644Z,100808.33
2019-03-28T16:46:02.693Z,100803.23
2019-03-28T16:48:32.855Z,100807.66
2019-03-28T16:51:02.955Z,100806.29
2019-03-28T16:53:33.101Z,100809.53
2019-03-28T16:56:03.182Z,100810.23
2019-03-28T16:58:33.339Z,100810.89
2019-03-28T17:01:03.418Z,100812.39
2019-03-28T17:03:33.528Z,100810.53
2019-03-28T17:06:03.721Z,100816.70
2019-03-28T17:08:33.996Z,100812.91
2019-03-28T17:11:04.113Z,100824.03
2019-03-28T17:13:34.219Z,100819.36
2019-03-28T17:16:04.355Z,100823.75
2019-03-28T17:18:34.577Z,100823.48
2019-03-28T17:21:04.678Z,100833.35
2019-03-28T17:23:34.778Z,100837.67
2019-03-28T17:26:05.432Z,100837.09
2019-03-28T17:28:35.539Z,100838.05
2019-03-28T17:31:05.640Z,100834.17
2019-03-28T17:33:35.801Z,100831.05
2019-03-28T17:36:06.002Z,100838.07
2019-03-28T17:38:36.126Z,100839.96
2019-03-28T17:41:06.741Z,100845.09
2019-03-28T17:43:36.996Z,100849.06
2019-03-28T17:46:07.133Z,100845.98
2019-03-28T17:48:37.210Z,100852.94
2019-03-28T17:51:07.419Z,100852.50
2019-03-28T17:53:37.568Z,100854.53
2019-03-28T17:56:07.607Z,100856.29
2019-03-28T17:58:37.741Z,100864.74
2019-03-28T18:01:08.294Z,100872.70
2019-03-28T18:03:38.401Z,100874.21
2019-03-28T18:06:08.843Z,100874.50
2019-03-28T18:08:39.065Z,100875.97
2019-03-28T18:11:09.143Z,100872.37
2019-03-28T18:13:39.354Z,100884.88
2019-03-28T18:16:09.704Z,100884.07
2019-03-28T18:18:40.291Z,100885.53
2019-03-28T18:21:10.384Z,100888.97
2019-03-28T18:23:40.607Z,100883.88
2019-03-28T18:26:10.761Z,100880.98
2019-03-28T18:28:40.895Z,100879.53
2019-03-28T18:31:12.093Z,100885.91
2019-03-28T18:33:45.285Z,100886.66
2019-03-28T18:36:16.895Z,100882.28
2019-03-28T18:38:47.080Z,100886.41
2019-03-28T18:41:17.227Z,100890.69
2019-03-28T18:43:47.394Z,100891.43
2019-03-28T18:46:17.488Z,100889.24
2019-03-28T18:48:47.953Z,100890.70
2019-03-28T18:51:18.849Z,100890.10
2019-03-28T18:53:48.933Z,100901.37
2019-03-28T18:56:19.132Z,100906.58
2019-03-28T18:58:49.229Z,100907.78
2019-03-28T19:01:19.351Z,100909.48
2019-03-28T19:03:49.554Z,100906.45
2019-03-28T19:06:19.739Z,100909.95
2019-03-28T19:08:49.862Z,100907.77
2019-03-28T19:11:20.078Z,100913.45
2019-03-28T19:13:50.180Z,100908.83
2019-03-28T19:16:21.809Z,100910.12
2019-03-28T19:18:52.155Z,100916.42
2019-03-28T19:21:22.266Z,100925.12
2019-03-28T19:23:52.377Z,100923.04
2019-03-28T19:26:22.464Z,100923.38
2019-03-28T19:28:52.565Z,100925.44
2019-03-28T19:31:22.627Z,100928.20
2019-03-28T19:33:52.737Z,100924.69
2019-03-28T19:36:22.987Z,100930.61
2019-03-28T19:38:53.279Z,100931.19
2019-03-28T19:41:24.608Z,100937.20
2019-03-28T19:43:54.962Z,100939.86
2019-03-28T19:46:25.154Z,100931.02
2019-03-28T19:48:55.267Z,100933.16
2019-03-28T19:51:28.211Z,100929.89
2019-03-28T19:53:57.209Z,100933.36
2019-03-28T19:56:27.301Z,100936.48
2019-03-28T19:58:57.620Z,100935.61
2019-03-28T20:01:28.191Z,100927.67
2019-03-28T20:03:58.323Z,100927.34
2019-03-28T20:06:28.403Z,100927.17
2019-03-28T20:08:58.562Z,100928.16
2019-03-28T20:11:28.627Z,100930.71
2019-03-28T20:13:58.719Z,100925.39
2019-03-28T20:16:28.806Z,100924.52
2019-03-28T20:18:58.925Z,100917.17
2019-03-28T20:21:29.009Z,100918.02
2019-03-28T20:23:59.258Z,100911.66
2019-03-28T20:26:29.850Z,100914.16
2019-03-28T20:29:00.226Z,100916.92
2019-03-28T20:31:31.421Z,100920.89
2019-03-28T20:34:01.472Z,100918.08
2019-03-28T20:36:38.586Z,100916.03
2019-03-28T20:39:06.194Z,100925.19
2019-03-28T20:41:36.681Z,100932.63
2019-03-28T20:44:06.785Z,100934.58
2019-03-28T20:46:36.914Z,100935.00
2019-03-28T20:49:07.033Z,100932.99
2019-03-28T20:51:37.230Z,100938.18
2019-03-28T20:54:10.135Z,100939.51
2019-03-28T20:56:40.252Z,100939.34
2019-03-28T20:59:10.397Z,100940.30
2019-03-28T21:01:42.582Z,100945.69
2019-03-28T21:04:12.275Z,100941.33
2019-03-28T21:06:42.490Z,100944.94
2019-03-28T21:09:12.576Z,100944.36
2019-03-28T21:11:42.690Z,100944.09
2019-03-28T21:14:12.786Z,100950.70
2019-03-28T21:16:42.881Z,100958.87
2019-03-28T21:19:12.960Z,100960.06
2019-03-28T21:21:44.529Z,100967.35
2019-03-28T21:24:14.841Z,100964.52
2019-03-28T21:26:46.050Z,100963.39
2019-03-28T21:29:16.711Z,100960.36
2019-03-28T21:31:50.008Z,100963.63
2019-03-28T21:34:18.726Z,100960.59
2019-03-28T21:36:48.901Z,100963.64
2019-03-28T21:39:18.978Z,100961.22
2019-03-28T21:41:49.070Z,100960.47
2019-03-28T21:44:19.161Z,100956.20
2019-03-28T21:46:49.329Z,100964.17
2019-03-28T21:49:19.548Z,100960.34
2019-03-28T21:51:49.636Z,100962.23
2019-03-28T21:54:19.727Z,100960.58
2019-03-28T21:56:50.037Z,100965.14
2019-03-28T21:59:20.994Z,100960.44
2019-03-28T22:01:51.176Z,100964.23
2019-03-28T22:04:21.252Z,100963.10
2019-03-28T22:06:51.478Z,100961.05
2019-03-28T22:09:21.562Z,100961.24
2019-03-28T22:11:51.639Z,100969.63
2019-03-28T22:14:21.690Z,100974.38
2019-03-28T22:16:51.773Z,100968.31
2019-03-28T22:19:21.863Z,100971.48
2019-03-28T22:21:51.964Z,100973.18
2019-03-28T22:24:22.007Z,100975.39
2019-03-28T22:26:52.101Z,100971.76
2019-03-28T22:29:22.205Z,100975.73
2019-03-28T22:31:52.326Z,100975.55
2019-03-28T22:34:22.408Z,100981.24
2019-03-28T22:36:57.487Z,100981.24
2019-03-28T22:39:24.328Z,100979.63
2019-03-28T22:41:54.526Z,100986.02
2019-03-28T22:44:24.958Z,100987.16
2019-03-28T22:46:55.333Z,100984.91
2019-03-28T22:49:25.433Z,100981.02
2019-03-28T22:51:55.509Z,100986.04
2019-03-28T22:54:25.613Z,100987.11
2019-03-28T22:56:55.718Z,100984.94
2019-03-28T22:59:26.892Z,100987.77
2019-03-28T23:01:57.278Z,100990.23
2019-03-28T23:04:27.368Z,100993.48
2019-03-28T23:07:10.106Z,100995.19
2019-03-28T23:09:29.306Z,101001.06
2019-03-28T23:11:59.488Z,100992.72
2019-03-28T23:14:29.587Z,100988.39
2019-03-28T23:16:59.694Z,100996.63
2019-03-28T23:19:29.785Z,100997.66
2019-03-28T23:21:59.895Z,100997.11
2019-03-28T23:24:29.999Z,100996.35
2019-03-28T23:27:00.873Z,100998.64
2019-03-28T23:29:31.087Z,101002.91
2019-03-28T23:32:01.202Z,101002.23
2019-03-28T23:34:31.312Z,101004.13
2019-03-28T23:37:01.396Z,101009.36
2019-03-28T23:39:31.510Z,101001.48
2019-03-28T23:42:01.657Z,100999.39
2019-03-28T23:44:31.731Z,101005.75
2019-03-28T23:47:01.811Z,101002.98
2019-03-28T23:49:31.852Z,101004.22
2019-03-28T23:52:01.954Z,100995.41
2019-03-28T23:54:32.042Z,101006.03
2019-03-28T23:57:02.991Z,101002.70
2019-03-28T23:59:33.139Z,100997.88
